Flight Track Log - Related Links

Times and Time Zones

All times are in EDT time to prevent confusion due to time zone crossing. See the SKW5550 flight status page for this flight to view local times or setup timezone preferences in your user account.

Time Position Orientation Groundspeed Altitude Reporting Facility
EDT Latitude Longitude Course Direction KTS MPH feet Rate Location/Type
Sat 10:20:17 AM 44.5028 -109.0553 156° South 135 155 6,500  Level Salt Lake Center
Sat 10:21:18 AM 44.4581 -109.0389 165° South 247 284 8,100 1,967 Climbing Salt Lake Center
Sat 10:22:00 AM 44.2238 -108.7218 157° South  Level Estimated
Sat 10:22:19 AM 44.4908 -108.9728 55° Northeast 241 277 10,500  Level Salt Lake Center
Sat 10:23:00 AM 44.1248 -108.6219 157° South  Level Estimated
Sat 10:23:20 AM 44.5067 -108.8778 77° East 271 312 12,700  Level Salt Lake Center
Sat 10:24:00 AM 44.0095 -108.5652 161° South  Level FlightAware Approximate
Sat 10:24:21 AM 44.4036 -108.8275 161° South 326 375 14,500  Level Salt Lake Center
Sat 10:25:00 AM 43.9109 -108.4649 156° South  Level Estimated
Sat 10:25:22 AM 44.3103 -108.7864 163° South 349 402 16,400  Level Salt Lake Center
Sat 10:26:24 AM 44.2167 -108.7328 158° South 361 415 18,100 1,610 Climbing Salt Lake Center
Sat 10:27:25 AM 44.1217 -108.6783 158° South 366 421 19,700 1,377 Climbing Salt Lake Center
Sat 10:28:26 AM 44.0228 -108.6203 157° South 380 437 20,900 1,279 Climbing Salt Lake Center
Sat 10:29:27 AM 43.9200 -108.5617 158° South 397 457 22,300 1,377 Climbing Salt Lake Center
Sat 10:30:28 AM 43.8164 -108.5028 158° South 404 465 23,700 1,279 Climbing Salt Lake Center
Sat 10:31:29 AM 43.7108 -108.4414 157° South 411 473 24,900 1,073 Climbing Salt Lake Center
Sat 10:32:31 AM 43.6047 -108.3806 157° South 414 476 25,900 1,073 Climbing Salt Lake Center
Sat 10:33:32 AM 43.4733 -108.3081 158° South 425 489 27,100 1,033 Climbing Salt Lake Center
Sat 10:34:33 AM 43.3781 -108.2097 143° Southeast 431 496 28,000 836 Climbing Salt Lake Center
Sat 10:35:34 AM 43.2822 -108.1100 143° Southeast 433 498 28,800 732 Climbing Salt Lake Center
Sat 10:36:36 AM 43.1861 -108.0061 142° Southeast 439 505 29,500 683 Climbing Salt Lake Center
Sat 10:37:37 AM 43.0872 -107.9028 143° Southeast 445 512 30,200 639 Climbing Salt Lake Center
Sat 10:38:38 AM 42.9878 -107.7958 142° Southeast 452 520 30,800 393 Climbing Salt Lake Center
Sat 10:39:39 AM 42.8742 -107.6781 143° Southeast 457 526 31,000 98 Climbing Salt Lake Center
Sat 10:40:41 AM 42.7725 -107.5731 143° Southeast 467 537 31,000  Level Salt Lake Center
Sat 10:41:42 AM 42.6675 -107.4642 143° Southeast 483 556 31,000  Level Salt Lake Center
Sat 10:42:43 AM 42.5431 -107.3350 143° Southeast 496 571 31,000  Level Salt Lake Center
Sat 10:43:45 AM 42.4331 -107.2231 143° Southeast 508 585 31,000  Level Salt Lake Center
Sat 10:44:32 AM 42.3417 -107.1278 142° Southeast 516 594 31,000  Level Denver Center
Sat 10:45:34 AM 42.2306 -107.0153 143° Southeast 518 596 31,000  Level Denver Center
Sat 10:46:35 AM 42.1014 -106.8872 144° Southeast 516 594 31,000  Level Denver Center
Sat 10:47:37 AM 41.9914 -106.7775 143° Southeast 514 592 31,000  Level Denver Center
Sat 10:48:39 AM 41.8639 -106.6517 144° Southeast 509 586 31,000  Level Denver Center
Sat 10:49:41 AM 41.7544 -106.5436 144° Southeast 509 586 31,000  Level Denver Center
Sat 10:50:42 AM 41.6322 -106.4253 144° Southeast 504 580 31,000  Level Denver Center
Sat 10:51:44 AM 41.5247 -106.3203 144° Southeast 503 579 31,000  Level Denver Center
Sat 10:52:46 AM 41.4003 -106.1983 144° Southeast 499 574 31,000  Level Denver Center
Sat 10:53:48 AM 41.2931 -106.0961 144° Southeast 497 572 31,000  Level Denver Center
Sat 10:54:50 AM 41.1678 -105.9756 144° Southeast 499 574 31,000 -774 Level Denver Center
Sat 10:55:52 AM 41.0594 -105.8714 144° Southeast 501 577 29,400 -1,887 Descending Denver Center
Sat 10:56:54 AM 40.9394 -105.7569 144° Southeast 507 583 27,100 -2,177 Descending Denver Center
Sat 10:57:56 AM 40.8281 -105.6514 144° Southeast 496 571 24,900 -2,129 Descending Denver Center
Sat 10:58:58 AM 40.7194 -105.5489 144° Southeast 483 556 22,700 -2,160 Descending Denver Center
Sat 11:00:01 AM 40.5947 -105.4222 142° Southeast 473 544 20,400 -2,064 Descending Denver Center
Sat 11:01:03 AM 40.5217 -105.2872 125° Southeast 456 525 18,400 -1,839 Descending Denver Center
Sat 11:02:05 AM 40.4678 -105.1442 116° Southeast 435 501 16,600 -1,597 Descending Denver Center
Sat 11:03:07 AM 40.4253 -104.9969 111° Southeast 430 495 15,100 -1,258 Descending Denver Center
Sat 11:04:09 AM 40.3728 -104.8528 116° Southeast 409 471 14,000 -1,306 Descending Denver Center
Sat 11:05:11 AM 40.3156 -104.7272 121° Southeast 401 461 12,400 -1,742 Descending Denver Center
Sat 11:06:13 AM 40.2183 -104.6756 158° South 396 456 10,400 -1,548 Descending Denver Center
Sat 11:07:15 AM 40.1225 -104.6836 184° South 313 360 9,200 -1,306 Descending Denver Center
Sat 11:08:17 AM 40.0428 -104.6853 181° South 290 334 7,700 -1,113 Descending Denver Center
Sat 11:09:19 AM 39.9775 -104.6856 180° South 218 251 6,900 -823 Descending Denver Center
Sat 11:10:21 AM 39.9278 -104.6867 181° South 186 214 6,000 -780 Descending Denver Center
Sat 11:11:22 AM 39.8922 -104.6867 180° South 144 166 5,300 -689 Descending Denver Center

Login

Don't have an account? Register now (free) for customized features, flight alerts, and more!